Time;durP1;ratioP1;P1;durP2;ratioP2;P2;SDS_P1;SDS_P2;PMS_P1;PMS_P2;Temp;Humidity;BMP_temperature;BMP_pressure;BME280_temperature;BME280_humidity;BME280_pressure;Samples;Min_cycle;Max_cycle;Signal;HPM_P1;HPM_P2
2023/04/11 00:02:19;0.00;0.00;0.62;0.00;0.00;0.62;2.17;1.70;;;25.60;22.10;;;;;;2266680;61;20379;-63
2023/04/11 00:05:05;0.00;0.00;0.62;0.00;0.00;0.62;1.80;1.40;;;25.60;22.10;;;;;;2266234;61;20360;-65
2023/04/11 00:07:52;0.00;0.00;0.62;0.00;0.00;0.62;2.20;1.90;;;25.60;22.10;;;;;;2266712;61;20380;-63
2023/04/11 00:10:36;0.00;0.00;0.62;0.00;0.00;0.62;1.80;1.50;;;25.60;22.10;;;;;;2264925;61;20360;-64
2023/04/11 00:13:23;0.00;0.00;0.62;0.00;0.00;0.62;1.70;1.30;;;25.60;22.10;;;;;;2266865;61;20419;-62
2023/04/11 00:16:09;0.00;0.00;0.62;0.00;0.00;0.62;2.50;1.53;;;25.60;22.10;;;;;;2266797;61;20356;-63
2023/04/11 00:18:55;0.00;0.00;0.62;0.00;0.00;0.62;2.27;1.63;;;25.50;22.10;;;;;;2266275;61;20396;-63
2023/04/11 00:21:42;0.00;0.00;0.62;0.00;0.00;0.62;2.70;1.80;;;25.50;22.10;;;;;;2267031;61;20388;-63
2023/04/11 00:24:29;0.00;0.00;0.62;0.00;0.00;0.62;1.70;1.40;;;25.50;22.10;;;;;;2266548;61;20443;-63
2023/04/11 00:27:14;0.00;0.00;0.62;0.00;0.00;0.62;2.27;1.90;;;25.60;22.20;;;;;;2263299;61;20784;-63
2023/04/11 00:29:59;0.00;0.00;0.62;0.00;0.00;0.62;1.80;1.47;;;25.50;22.10;;;;;;2266206;61;20364;-63
2023/04/11 00:32:45;0.00;0.00;0.62;0.00;0.00;0.62;1.87;1.30;;;25.50;22.10;;;;;;2266817;61;20360;-63
2023/04/11 00:35:33;0.00;0.00;0.62;0.00;0.00;0.62;1.70;1.30;;;25.50;22.10;;;;;;2263584;61;20360;-63
2023/04/11 00:38:18;0.00;0.00;0.62;0.00;0.00;0.62;1.73;1.33;;;25.50;22.10;;;;;;2266325;61;20438;-63
2023/04/11 00:41:05;0.00;0.00;0.62;0.00;0.00;0.62;1.90;1.40;;;25.50;22.10;;;;;;2263125;61;20494;-63
2023/04/11 00:43:50;0.00;0.00;0.62;0.00;0.00;0.62;2.20;1.90;;;25.50;22.10;;;;;;2266508;61;20760;-63
2023/04/11 00:46:36;0.00;0.00;0.62;0.00;0.00;0.62;2.17;1.50;;;25.50;22.10;;;;;;2263218;61;20393;-63
2023/04/11 00:49:21;0.00;0.00;0.62;0.00;0.00;0.62;1.83;1.33;;;25.50;22.20;;;;;;2263489;61;20375;-63
2023/04/11 00:52:06;0.00;0.00;0.62;0.00;0.00;0.62;2.33;1.77;;;25.50;22.20;;;;;;2270959;61;20371;-63
2023/04/11 00:54:51;0.00;0.00;0.62;0.00;0.00;0.62;1.60;1.13;;;25.50;22.20;;;;;;2270769;61;20435;-64
2023/04/11 00:57:37;0.00;0.00;0.62;0.00;0.00;0.62;1.70;1.37;;;25.50;22.20;;;;;;2270548;61;20487;-64
2023/04/11 01:00:23;0.00;0.00;0.62;0.00;0.00;0.62;2.30;1.67;;;25.50;22.20;;;;;;2270452;61;20412;-64
2023/04/11 01:03:08;0.00;0.00;0.62;0.00;0.00;0.62;1.87;1.20;;;25.50;22.20;;;;;;2270430;61;20410;-63
2023/04/11 01:05:53;0.00;0.00;0.62;0.00;0.00;0.62;1.80;1.30;;;25.50;22.20;;;;;;2271377;61;20383;-64
2023/04/11 01:08:42;0.00;0.00;0.62;0.00;0.00;0.62;2.00;1.50;;;25.50;22.20;;;;;;2270408;61;20410;-64
2023/04/11 01:11:26;0.00;0.00;0.62;0.00;0.00;0.62;1.97;1.40;;;25.40;22.10;;;;;;2267535;61;20893;-62
2023/04/11 01:14:13;0.00;0.00;0.62;0.00;0.00;0.62;1.90;1.20;;;25.50;22.20;;;;;;2270975;61;20950;-63
2023/04/11 01:17:20;0.00;0.00;0.62;0.00;0.00;0.62;1.70;1.23;;;25.50;22.20;;;;;;2288470;47;20932;31
2023/04/11 01:20:07;0.00;0.00;0.62;0.00;0.00;0.62;1.47;1.13;;;25.50;22.20;;;;;;2263891;61;20465;-63
2023/04/11 01:22:55;0.00;0.00;0.62;0.00;0.00;0.62;1.70;1.20;;;25.40;22.20;;;;;;2265781;61;20380;-64
2023/04/11 01:25:43;0.00;0.00;0.62;0.00;0.00;0.62;1.67;1.20;;;25.40;22.20;;;;;;2266138;61;20356;-64
2023/04/11 01:28:29;0.00;0.00;0.62;0.00;0.00;0.62;1.60;0.90;;;25.40;22.20;;;;;;2269820;61;20444;-63
2023/04/11 01:31:13;0.00;0.00;0.62;0.00;0.00;0.62;1.60;1.20;;;25.40;22.20;;;;;;2270516;61;20907;-63
2023/04/11 01:33:59;0.00;0.00;0.62;0.00;0.00;0.62;1.50;1.10;;;25.40;22.20;;;;;;2264490;61;20363;-65
2023/04/11 01:36:44;0.00;0.00;0.62;0.00;0.00;0.62;2.00;1.20;;;25.40;22.20;;;;;;2267581;61;20359;-67
2023/04/11 01:39:29;0.00;0.00;0.62;0.00;0.00;0.62;1.70;1.10;;;25.40;22.70;;;;;;2270552;61;20347;-66
2023/04/11 01:42:15;0.00;0.00;0.62;0.00;0.00;0.62;1.60;1.07;;;25.40;22.20;;;;;;2271092;61;20386;-63
2023/04/11 01:45:01;0.00;0.00;0.62;0.00;0.00;0.62;1.70;1.10;;;25.40;22.20;;;;;;2267419;61;20931;-63
2023/04/11 01:47:46;0.00;0.00;0.62;0.00;0.00;0.62;1.60;1.10;;;25.40;22.20;;;;;;2267539;61;20410;-63
2023/04/11 01:50:31;0.00;0.00;0.62;0.00;0.00;0.62;1.60;0.90;;;25.40;22.20;;;;;;2270907;61;20784;-63
2023/04/11 01:53:15;0.00;0.00;0.62;0.00;0.00;0.62;1.60;1.10;;;25.40;22.20;;;;;;2264932;61;20359;-63
2023/04/11 01:56:00;0.00;0.00;0.62;0.00;0.00;0.62;1.77;1.10;;;25.40;22.20;;;;;;2270253;61;20371;-64
2023/04/11 02:01:47;0.00;0.00;0.62;0.00;0.00;0.62;1.40;0.90;;;25.40;22.20;;;;;;2280351;60;20398;-63
2023/04/11 02:04:32;0.00;0.00;0.62;0.00;0.00;0.62;1.40;0.90;;;25.40;22.20;;;;;;2275691;60;20357;-63
2023/04/11 02:10:09;0.00;0.00;0.62;0.00;0.00;0.62;1.70;1.20;;;25.40;22.20;;;;;;2271714;61;20375;-64
2023/04/11 02:12:54;0.00;0.00;0.62;0.00;0.00;0.62;1.60;1.13;;;25.40;22.20;;;;;;2270999;61;20942;-63
2023/04/11 02:15:38;0.00;0.00;0.62;0.00;0.00;0.62;1.50;1.00;;;25.40;22.20;;;;;;2270822;61;20394;-63
2023/04/11 02:18:25;0.00;0.00;0.62;0.00;0.00;0.62;1.67;1.00;;;25.40;22.20;;;;;;2268529;61;20387;-63
2023/04/11 02:21:10;0.00;0.00;0.62;0.00;0.00;0.62;1.70;1.13;;;25.30;22.10;;;;;;2270286;61;20351;-63
2023/04/11 02:23:55;0.00;0.00;0.62;0.00;0.00;0.62;1.60;1.17;;;25.30;22.10;;;;;;2267316;61;20363;-64
2023/04/11 02:26:40;0.00;0.00;0.62;0.00;0.00;0.62;1.50;1.10;;;25.30;22.10;;;;;;2270994;61;20358;-63
2023/04/11 02:29:26;0.00;0.00;0.62;0.00;0.00;0.62;1.80;1.10;;;25.30;22.10;;;;;;2266716;61;20416;-64
2023/04/11 02:32:10;0.00;0.00;0.62;0.00;0.00;0.62;1.53;0.87;;;25.30;22.10;;;;;;2270660;61;20359;-64
2023/04/11 02:34:57;0.00;0.00;0.62;0.00;0.00;0.62;1.50;1.10;;;25.30;22.10;;;;;;2270655;61;20398;-63
2023/04/11 02:37:42;0.00;0.00;0.62;0.00;0.00;0.62;1.63;1.07;;;25.30;22.10;;;;;;2270732;61;20405;-63
2023/04/11 02:40:27;0.00;0.00;0.62;0.00;0.00;0.62;1.50;1.00;;;25.30;22.10;;;;;;2266903;61;20982;-63
2023/04/11 02:43:12;0.00;0.00;0.62;0.00;0.00;0.62;1.70;0.93;;;25.30;22.10;;;;;;2267402;61;20363;-62
2023/04/11 02:45:59;0.00;0.00;0.62;0.00;0.00;0.62;1.70;1.20;;;25.30;22.10;;;;;;2267459;61;20379;-64
2023/04/11 02:48:45;0.00;0.00;0.62;0.00;0.00;0.62;1.70;1.07;;;25.30;22.10;;;;;;2264734;61;20383;-63
2023/04/11 02:51:33;0.00;0.00;0.62;0.00;0.00;0.62;1.60;1.00;;;25.30;22.20;;;;;;2267099;61;20359;-63
2023/04/11 02:54:17;0.00;0.00;0.62;0.00;0.00;0.62;1.37;0.90;;;25.20;22.10;;;;;;2267021;61;20367;-63
2023/04/11 02:57:03;0.00;0.00;0.62;0.00;0.00;0.62;1.73;1.10;;;25.30;22.20;;;;;;2267517;61;20358;-63
2023/04/11 02:59:48;0.00;0.00;0.62;0.00;0.00;0.62;1.77;1.37;;;25.20;22.60;;;;;;2267042;61;20383;-64
2023/04/11 03:02:36;0.00;0.00;0.62;0.00;0.00;0.62;1.40;0.90;;;25.30;22.20;;;;;;2267299;61;20359;-65
2023/04/11 03:05:21;0.00;0.00;0.62;0.00;0.00;0.62;1.57;1.10;;;25.20;22.10;;;;;;2270342;61;20382;-66
2023/04/11 03:08:09;0.00;0.00;0.62;0.00;0.00;0.62;1.50;0.93;;;25.20;22.10;;;;;;2267219;61;20395;-64
2023/04/11 03:10:57;0.00;0.00;0.62;0.00;0.00;0.62;2.00;1.00;;;25.30;22.20;;;;;;2267908;61;20367;-63
2023/04/11 03:13:43;0.00;0.00;0.62;0.00;0.00;0.62;1.57;1.00;;;25.20;22.20;;;;;;2267514;61;20427;-63
2023/04/11 03:16:28;0.00;0.00;0.62;0.00;0.00;0.62;1.40;0.90;;;25.20;22.20;;;;;;2267846;61;20500;-63
2023/04/11 03:19:13;0.00;0.00;0.62;0.00;0.00;0.62;1.40;0.80;;;25.20;22.20;;;;;;2267834;61;20374;-63
2023/04/11 03:22:00;0.00;0.00;0.62;0.00;0.00;0.62;1.83;1.23;;;25.20;22.20;;;;;;2271155;61;20930;-63
2023/04/11 03:24:48;0.00;0.00;0.62;0.00;0.00;0.62;2.17;0.80;;;25.20;22.20;;;;;;2270752;61;20972;-63
2023/04/11 03:27:34;0.00;0.00;0.62;0.00;0.00;0.62;1.40;0.70;;;25.20;22.20;;;;;;2265188;61;20506;-64
2023/04/11 03:30:21;0.00;0.00;0.62;0.00;0.00;0.62;1.50;0.90;;;25.20;22.20;;;;;;2267717;61;20374;-64
2023/04/11 03:33:06;0.00;0.00;0.62;0.00;0.00;0.62;1.60;1.13;;;25.20;22.20;;;;;;2271190;61;20371;-63
2023/04/11 03:35:52;0.00;0.00;0.62;0.00;0.00;0.62;1.60;0.90;;;25.20;22.20;;;;;;2270997;61;20377;-63
2023/04/11 03:38:36;0.00;0.00;0.62;0.00;0.00;0.62;1.30;0.80;;;25.20;22.20;;;;;;2267778;61;20837;-64
2023/04/11 03:41:23;0.00;0.00;0.62;0.00;0.00;0.62;1.47;0.80;;;25.20;22.20;;;;;;2268165;61;20371;-63
2023/04/11 03:44:09;0.00;0.00;0.62;0.00;0.00;0.62;1.40;0.83;;;25.10;22.20;;;;;;2267217;61;20884;-64
2023/04/11 03:46:54;0.00;0.00;0.62;0.00;0.00;0.62;1.40;0.90;;;25.20;22.20;;;;;;2267434;61;20363;-62
2023/04/11 03:49:39;0.00;0.00;0.62;0.00;0.00;0.62;1.40;0.90;;;25.20;22.20;;;;;;2267138;61;20367;-62
2023/04/11 03:52:24;0.00;0.00;0.62;0.00;0.00;0.62;1.37;0.90;;;25.10;22.20;;;;;;2268009;61;20423;-64
2023/04/11 03:55:11;0.00;0.00;0.62;0.00;0.00;0.62;1.43;0.93;;;25.10;22.20;;;;;;2267629;61;20440;-63
2023/04/11 03:57:57;0.00;0.00;0.62;0.00;0.00;0.62;1.37;0.77;;;25.10;22.20;;;;;;2267170;61;20532;-64
2023/04/11 04:00:45;0.00;0.00;0.62;0.00;0.00;0.62;1.60;0.90;;;25.10;22.20;;;;;;2266834;61;20359;-64
2023/04/11 04:03:31;0.00;0.00;0.62;0.00;0.00;0.62;1.60;0.93;;;25.10;22.20;;;;;;2267389;61;20363;-64
2023/04/11 04:06:18;0.00;0.00;0.62;0.00;0.00;0.62;1.70;1.00;;;25.10;22.20;;;;;;2267282;61;20393;-64
2023/04/11 04:09:05;0.00;0.00;0.62;0.00;0.00;0.62;1.30;0.80;;;25.10;22.20;;;;;;2266762;61;20612;-64
2023/04/11 04:12:03;0.00;0.00;0.62;0.00;0.00;0.62;1.70;0.90;;;25.10;22.20;;;;;;2267376;61;20417;-64
2023/04/11 04:15:08;0.00;0.00;0.62;0.00;0.00;0.62;1.70;0.80;;;25.10;22.20;;;;;;2267265;61;20367;-63
2023/04/11 04:17:54;0.00;0.00;0.62;0.00;0.00;0.62;1.50;0.90;;;25.10;22.30;;;;;;2270684;61;20457;-62
2023/04/11 04:20:49;0.00;0.00;0.62;0.00;0.00;0.62;1.40;0.90;;;25.10;22.30;;;;;;2266753;61;20424;-63
2023/04/11 04:23:37;0.00;0.00;0.62;0.00;0.00;0.62;2.57;0.93;;;25.10;22.30;;;;;;2267366;61;20358;-63
2023/04/11 04:26:32;0.00;0.00;0.62;0.00;0.00;0.62;1.40;1.00;;;25.10;22.30;;;;;;2271309;61;20762;-64
2023/04/11 04:29:37;0.00;0.00;0.62;0.00;0.00;0.62;1.37;0.80;;;25.10;22.30;;;;;;2270014;61;20793;-64
2023/04/11 04:32:29;0.00;0.00;0.62;0.00;0.00;0.62;1.50;0.97;;;25.10;22.30;;;;;;2267690;61;20378;-63
2023/04/11 04:35:19;0.00;0.00;0.62;0.00;0.00;0.62;1.70;0.97;;;25.10;22.30;;;;;;2267196;61;20382;-64
2023/04/11 04:38:05;0.00;0.00;0.62;0.00;0.00;0.62;1.50;0.90;;;25.10;22.30;;;;;;2267266;61;20425;-64
2023/04/11 04:41:14;0.00;0.00;0.62;0.00;0.00;0.62;1.60;1.10;;;25.00;22.30;;;;;;2267316;61;20416;-63
2023/04/11 04:44:04;0.00;0.00;0.62;0.00;0.00;0.62;2.03;1.00;;;25.00;22.30;;;;;;2264523;61;20395;-63
2023/04/11 04:46:58;0.00;0.00;0.62;0.00;0.00;0.62;1.60;0.90;;;25.00;22.30;;;;;;2290520;39;20359;31
2023/04/11 04:49:46;0.00;0.00;0.62;0.00;0.00;0.62;1.90;1.10;;;25.00;22.30;;;;;;2259519;61;20367;-63
2023/04/11 04:52:31;0.00;0.00;0.62;0.00;0.00;0.62;2.43;0.97;;;25.00;22.30;;;;;;2255283;61;20384;-63
2023/04/11 04:55:16;0.00;0.00;0.62;0.00;0.00;0.62;1.30;0.80;;;25.00;22.30;;;;;;2258596;61;20454;-64
2023/04/11 04:58:01;0.00;0.00;0.62;0.00;0.00;0.62;1.40;0.80;;;25.00;22.30;;;;;;2255204;61;20440;-62
2023/04/11 05:00:54;0.00;0.00;0.62;0.00;0.00;0.62;1.43;0.87;;;25.00;22.30;;;;;;2257544;61;20362;-62
2023/04/11 05:03:45;0.00;0.00;0.62;0.00;0.00;0.62;1.90;0.93;;;25.00;22.30;;;;;;2258062;61;20816;-63
2023/04/11 05:06:35;0.00;0.00;0.62;0.00;0.00;0.62;1.30;0.70;;;25.00;22.30;;;;;;2255709;61;20385;-64
2023/04/11 05:09:21;0.00;0.00;0.62;0.00;0.00;0.62;1.73;1.10;;;25.00;22.30;;;;;;2257743;61;20362;-64
2023/04/11 05:12:08;0.00;0.00;0.62;0.00;0.00;0.62;1.40;0.80;;;25.00;22.30;;;;;;2257765;61;20361;-63
2023/04/11 05:14:56;0.00;0.00;0.62;0.00;0.00;0.62;2.37;0.90;;;25.00;22.30;;;;;;2253910;61;20461;-64
2023/04/11 05:17:41;0.00;0.00;0.62;0.00;0.00;0.62;1.30;0.70;;;25.00;22.30;;;;;;2256971;61;20390;-65
2023/04/11 05:20:28;0.00;0.00;0.62;0.00;0.00;0.62;1.50;0.90;;;24.90;22.20;;;;;;2257708;61;20381;-65
2023/04/11 05:23:15;0.00;0.00;0.62;0.00;0.00;0.62;1.50;0.87;;;25.00;22.30;;;;;;2257493;61;20398;-65
2023/04/11 05:26:00;0.00;0.00;0.62;0.00;0.00;0.62;2.03;1.13;;;24.90;22.20;;;;;;2254742;61;20369;-66
2023/04/11 05:28:46;0.00;0.00;0.62;0.00;0.00;0.62;1.40;0.80;;;24.90;22.20;;;;;;2254426;61;20425;-64
2023/04/11 05:31:36;0.00;0.00;0.62;0.00;0.00;0.62;1.40;0.70;;;24.90;22.20;;;;;;2255105;61;20469;-65
2023/04/11 05:34:21;0.00;0.00;0.62;0.00;0.00;0.62;1.80;1.00;;;24.90;22.20;;;;;;2253638;61;20370;-64
2023/04/11 05:37:07;0.00;0.00;0.62;0.00;0.00;0.62;1.30;0.70;;;24.90;22.20;;;;;;2277069;39;20433;-64
2023/04/11 05:39:55;0.00;0.00;0.62;0.00;0.00;0.62;1.40;0.80;;;24.90;22.20;;;;;;2274308;61;20373;-65
2023/04/11 05:42:40;0.00;0.00;0.62;0.00;0.00;0.62;2.03;1.00;;;24.90;22.20;;;;;;2274422;61;20402;-62
2023/04/11 05:45:24;0.00;0.00;0.62;0.00;0.00;0.62;1.47;0.80;;;24.90;22.20;;;;;;2273848;61;20373;-63
2023/04/11 05:48:09;0.00;0.00;0.62;0.00;0.00;0.62;1.60;0.70;;;24.90;22.20;;;;;;2273936;60;20377;-63
2023/04/11 05:50:55;0.00;0.00;0.62;0.00;0.00;0.62;1.40;0.90;;;24.90;22.20;;;;;;2271000;61;20894;-63
2023/04/11 05:53:40;0.00;0.00;0.62;0.00;0.00;0.62;1.40;0.80;;;24.90;22.20;;;;;;2268194;61;20370;-65
2023/04/11 05:56:26;0.00;0.00;0.62;0.00;0.00;0.62;1.53;0.90;;;24.90;22.20;;;;;;2270454;61;20363;-64
2023/04/11 05:59:11;0.00;0.00;0.62;0.00;0.00;0.62;1.50;0.70;;;24.90;22.20;;;;;;2274121;61;20386;-63
2023/04/11 06:01:55;0.00;0.00;0.62;0.00;0.00;0.62;1.20;0.60;;;24.90;22.20;;;;;;2274642;61;20386;-63
2023/04/11 06:04:40;0.00;0.00;0.62;0.00;0.00;0.62;1.50;0.80;;;24.90;22.20;;;;;;2274023;61;20444;-63
2023/04/11 06:07:26;0.00;0.00;0.62;0.00;0.00;0.62;2.40;0.87;;;24.90;22.20;;;;;;2274151;61;20421;-64
2023/04/11 06:10:11;0.00;0.00;0.62;0.00;0.00;0.62;1.43;0.77;;;24.80;22.10;;;;;;2274336;61;20362;-64
2023/04/11 06:12:57;0.00;0.00;0.62;0.00;0.00;0.62;1.33;0.70;;;24.90;22.20;;;;;;2274375;61;20369;-63
2023/04/11 06:15:42;0.00;0.00;0.62;0.00;0.00;0.62;1.83;0.90;;;24.80;22.10;;;;;;2274540;61;20510;-64
2023/04/11 06:18:27;0.00;0.00;0.62;0.00;0.00;0.62;1.50;0.93;;;24.90;22.20;;;;;;2273829;61;20398;-64
2023/04/11 06:21:11;0.00;0.00;0.62;0.00;0.00;0.62;1.87;1.00;;;24.80;22.10;;;;;;2270659;61;20444;-64
2023/04/11 06:24:01;0.00;0.00;0.62;0.00;0.00;0.62;1.30;0.70;;;24.80;22.10;;;;;;2273987;61;20358;-64
2023/04/11 06:26:46;0.00;0.00;0.62;0.00;0.00;0.62;1.37;0.77;;;24.80;22.10;;;;;;2274027;60;20358;-62
2023/04/11 06:29:32;0.00;0.00;0.62;0.00;0.00;0.62;1.50;0.70;;;24.80;22.10;;;;;;2266978;61;20896;-64
2023/04/11 06:32:17;0.00;0.00;0.62;0.00;0.00;0.62;1.33;0.70;;;24.80;22.10;;;;;;2274226;61;20366;-64
2023/04/11 06:35:02;0.00;0.00;0.62;0.00;0.00;0.62;1.57;0.70;;;24.80;22.10;;;;;;2274095;61;20400;-65
2023/04/11 06:37:47;0.00;0.00;0.62;0.00;0.00;0.62;1.90;0.80;;;24.80;22.10;;;;;;2274426;61;20456;-68
2023/04/11 06:40:31;0.00;0.00;0.62;0.00;0.00;0.62;1.37;0.90;;;24.80;22.10;;;;;;2273548;61;20415;-64
2023/04/11 06:43:16;0.00;0.00;0.62;0.00;0.00;0.62;1.30;0.70;;;24.80;22.10;;;;;;2274285;60;20361;-64
2023/04/11 06:46:03;0.00;0.00;0.62;0.00;0.00;0.62;1.57;0.73;;;24.80;22.10;;;;;;2274230;61;20381;-64
2023/04/11 06:48:48;0.00;0.00;0.62;0.00;0.00;0.62;1.90;1.00;;;24.80;22.10;;;;;;2274571;61;20420;-65
2023/04/11 06:51:33;0.00;0.00;0.62;0.00;0.00;0.62;1.47;0.77;;;24.80;22.10;;;;;;2274624;61;20381;-64
2023/04/11 06:54:18;0.00;0.00;0.62;0.00;0.00;0.62;1.50;0.70;;;24.80;22.10;;;;;;2274759;61;20366;-64
2023/04/11 06:57:02;0.00;0.00;0.62;0.00;0.00;0.62;1.50;0.70;;;24.80;22.10;;;;;;2274535;61;20360;-64
2023/04/11 06:59:47;0.00;0.00;0.62;0.00;0.00;0.62;1.80;0.83;;;24.80;22.10;;;;;;2274735;61;20358;-62
2023/04/11 07:02:37;0.00;0.00;0.62;0.00;0.00;0.62;1.50;0.97;;;24.80;22.10;;;;;;2271299;61;20401;-63
2023/04/11 07:05:22;0.00;0.00;0.62;0.00;0.00;0.62;1.80;0.93;;;24.80;22.10;;;;;;2274253;61;20373;-64
2023/04/11 07:08:07;0.00;0.00;0.62;0.00;0.00;0.62;1.80;0.70;;;24.80;22.10;;;;;;2271874;61;20393;-64
2023/04/11 07:10:51;0.00;0.00;0.62;0.00;0.00;0.62;1.77;0.80;;;24.80;22.10;;;;;;2274332;61;20357;-64
2023/04/11 07:13:36;0.00;0.00;0.62;0.00;0.00;0.62;1.40;0.73;;;24.80;22.10;;;;;;2274725;61;20361;-65
2023/04/11 07:16:21;0.00;0.00;0.62;0.00;0.00;0.62;1.40;0.80;;;24.80;22.10;;;;;;2275271;61;20398;-64
2023/04/11 07:19:08;0.00;0.00;0.62;0.00;0.00;0.62;1.40;0.70;;;24.70;22.00;;;;;;2271209;61;20389;-64
2023/04/11 07:21:52;0.00;0.00;0.62;0.00;0.00;0.62;1.40;0.80;;;24.70;22.00;;;;;;2275060;61;20402;-69
2023/04/11 07:24:37;0.00;0.00;0.62;0.00;0.00;0.62;1.43;0.90;;;24.70;22.00;;;;;;2274670;61;20390;-64
2023/04/11 07:27:23;0.00;0.00;0.62;0.00;0.00;0.62;1.63;0.90;;;24.70;22.00;;;;;;2274710;61;20914;-63
2023/04/11 07:30:09;0.00;0.00;0.62;0.00;0.00;0.62;1.90;1.47;;;24.70;22.00;;;;;;2274581;61;20358;-64
2023/04/11 07:32:54;0.00;0.00;0.62;0.00;0.00;0.62;1.50;0.90;;;24.70;22.00;;;;;;2274330;61;20401;-64
2023/04/11 07:35:40;0.00;0.00;0.62;0.00;0.00;0.62;2.70;1.20;;;24.70;22.00;;;;;;2271365;61;20495;-64
2023/04/11 07:38:28;0.00;0.00;0.62;0.00;0.00;0.62;1.93;1.00;;;24.70;22.00;;;;;;2274949;61;20421;-63
2023/04/11 07:41:13;0.00;0.00;0.62;0.00;0.00;0.62;3.77;1.30;;;24.70;22.00;;;;;;2274072;61;20357;-62
2023/04/11 07:43:57;0.00;0.00;0.62;0.00;0.00;0.62;1.97;1.20;;;24.70;22.00;;;;;;2274666;61;20361;-64
2023/04/11 07:46:42;0.00;0.00;0.62;0.00;0.00;0.62;1.73;1.10;;;24.70;22.00;;;;;;2275085;61;20358;-64
2023/04/11 07:49:27;0.00;0.00;0.62;0.00;0.00;0.62;3.10;1.60;;;24.70;22.00;;;;;;2274256;61;20825;-64
2023/04/11 07:52:13;0.00;0.00;0.62;0.00;0.00;0.62;1.77;1.03;;;24.70;22.00;;;;;;2271403;61;20381;-64
2023/04/11 07:54:58;0.00;0.00;0.62;0.00;0.00;0.62;2.40;1.57;;;24.70;22.00;;;;;;2270867;61;20362;-63
2023/04/11 07:57:43;0.00;0.00;0.62;0.00;0.00;0.62;2.10;1.50;;;24.70;22.00;;;;;;2274766;61;20461;-69
2023/04/11 08:00:29;0.00;0.00;0.62;0.00;0.00;0.62;2.40;1.40;;;24.70;22.00;;;;;;2274659;61;20770;-64
2023/04/11 08:03:15;0.00;0.00;0.62;0.00;0.00;0.62;2.70;1.50;;;24.70;22.00;;;;;;2271330;61;20520;-64
2023/04/11 08:06:00;0.00;0.00;0.62;0.00;0.00;0.62;2.37;1.47;;;24.70;22.00;;;;;;2274599;61;20372;-64
2023/04/11 08:08:48;0.00;0.00;0.62;0.00;0.00;0.62;2.33;1.63;;;24.70;22.00;;;;;;2427338;39;20560;-63
2023/04/11 08:11:33;0.00;0.00;0.62;0.00;0.00;0.62;2.90;1.73;;;24.70;22.60;;;;;;2275075;61;20770;-64
2023/04/11 08:14:17;0.00;0.00;0.62;0.00;0.00;0.62;3.00;2.40;;;24.70;22.00;;;;;;2274661;61;20447;-63
2023/04/11 08:17:02;0.00;0.00;0.62;0.00;0.00;0.62;3.07;2.13;;;24.70;22.00;;;;;;2274066;61;20435;-63
2023/04/11 08:19:47;0.00;0.00;0.62;0.00;0.00;0.62;2.83;2.20;;;24.70;22.00;;;;;;2271948;61;20417;-63
2023/04/11 08:22:33;0.00;0.00;0.62;0.00;0.00;0.62;4.20;2.90;;;24.70;22.00;;;;;;2270761;61;20367;-63
2023/04/11 08:25:23;0.00;0.00;0.62;0.00;0.00;0.62;3.37;2.87;;;24.70;22.00;;;;;;2270446;61;20368;-63
2023/04/11 08:28:10;0.00;0.00;0.62;0.00;0.00;0.62;3.70;2.90;;;24.70;22.00;;;;;;2273625;61;20410;-63
2023/04/11 08:30:57;0.00;0.00;0.62;0.00;0.00;0.62;4.10;3.33;;;24.70;22.00;;;;;;2274375;61;20361;-64
2023/04/11 08:33:41;0.00;0.00;0.62;0.00;0.00;0.62;4.67;3.20;;;24.70;22.00;;;;;;2274528;61;20391;-64
2023/04/11 08:36:26;0.00;0.00;0.62;0.00;0.00;0.62;3.87;3.20;;;24.70;22.00;;;;;;2274850;61;20390;-64
2023/04/11 08:39:11;0.00;0.00;0.62;0.00;0.00;0.62;4.27;3.40;;;24.70;22.00;;;;;;2274430;61;20422;-64
2023/04/11 08:41:58;0.00;0.00;0.62;0.00;0.00;0.62;3.60;3.10;;;24.70;22.60;;;;;;2274443;61;20899;-64
2023/04/11 08:44:51;0.00;0.00;0.62;0.00;0.00;0.62;4.50;3.10;;;24.70;22.10;;;;;;2274879;61;20488;-64
2023/04/11 08:47:36;0.00;0.00;0.62;0.00;0.00;0.62;4.17;3.00;;;24.70;22.00;;;;;;2273728;61;20406;-63
2023/04/11 08:50:21;0.00;0.00;0.62;0.00;0.00;0.62;4.90;3.67;;;24.70;22.00;;;;;;2274151;61;20899;-65
2023/04/11 08:53:07;0.00;0.00;0.62;0.00;0.00;0.62;4.50;3.77;;;24.70;22.00;;;;;;2274398;61;20362;-63
2023/04/11 08:55:52;0.00;0.00;0.62;0.00;0.00;0.62;4.30;3.83;;;24.70;22.00;;;;;;2274953;61;20385;-63
2023/04/11 08:58:38;0.00;0.00;0.62;0.00;0.00;0.62;5.17;4.23;;;24.70;22.00;;;;;;2274718;61;20425;-63
2023/04/11 09:01:30;0.00;0.00;0.62;0.00;0.00;0.62;5.90;4.37;;;24.70;22.00;;;;;;2274623;61;20413;-64
2023/04/11 09:04:15;0.00;0.00;0.62;0.00;0.00;0.62;6.03;4.60;;;24.70;22.00;;;;;;2274481;61;20385;-63
2023/04/11 09:07:00;0.00;0.00;0.62;0.00;0.00;0.62;6.87;5.23;;;24.70;22.00;;;;;;2274479;61;20370;-63
2023/04/11 09:09:45;0.00;0.00;0.62;0.00;0.00;0.62;5.67;4.93;;;24.70;22.00;;;;;;2273133;61;20826;-63
2023/04/11 09:12:30;0.00;0.00;0.62;0.00;0.00;0.62;5.30;4.53;;;24.70;22.00;;;;;;2274905;61;20358;-62
2023/04/11 09:15:21;0.00;0.00;0.62;0.00;0.00;0.62;6.97;6.27;;;24.70;22.00;;;;;;2274099;61;20504;-63
2023/04/11 09:18:06;0.00;0.00;0.62;0.00;0.00;0.62;6.50;5.53;;;24.70;22.00;;;;;;2274815;61;20394;-62
2023/04/11 09:20:59;0.00;0.00;0.62;0.00;0.00;0.62;7.10;5.50;;;24.70;22.00;;;;;;2274156;61;20420;-63
2023/04/11 09:23:43;0.00;0.00;0.62;0.00;0.00;0.62;7.10;6.00;;;24.80;22.10;;;;;;2274222;61;20477;-63
2023/04/11 09:26:29;0.00;0.00;0.62;0.00;0.00;0.62;6.77;6.10;;;24.70;22.00;;;;;;2274626;61;20936;-63
2023/04/11 09:29:35;0.00;0.00;0.62;0.00;0.00;0.62;7.37;6.63;;;24.70;22.00;;;;;;2274935;61;20365;-63
2023/04/11 09:32:32;0.00;0.00;0.62;0.00;0.00;0.62;7.30;6.23;;;24.80;22.10;;;;;;2274510;61;20396;-63
2023/04/11 09:35:19;0.00;0.00;0.62;0.00;0.00;0.62;8.03;7.10;;;24.70;22.00;;;;;;2274749;61;20398;-63
2023/04/11 09:38:08;0.00;0.00;0.62;0.00;0.00;0.62;8.27;7.03;;;24.80;22.10;;;;;;2273548;61;20927;-63
2023/04/11 09:40:52;0.00;0.00;0.62;0.00;0.00;0.62;7.13;6.43;;;24.80;22.10;;;;;;2274477;61;20410;-63
2023/04/11 09:43:51;0.00;0.00;0.62;0.00;0.00;0.62;8.17;7.20;;;24.80;22.10;;;;;;2274871;61;20423;-63
2023/04/11 09:46:36;0.00;0.00;0.62;0.00;0.00;0.62;8.00;7.20;;;24.80;22.20;;;;;;2274483;61;20411;-67
2023/04/11 09:49:23;0.00;0.00;0.62;0.00;0.00;0.62;9.50;7.50;;;24.80;22.20;;;;;;2274074;61;20392;-63
2023/04/11 09:52:07;0.00;0.00;0.62;0.00;0.00;0.62;6.70;6.00;;;24.80;22.10;;;;;;2275045;61;20382;-63
2023/04/11 09:54:53;0.00;0.00;0.62;0.00;0.00;0.62;8.30;6.70;;;24.80;22.10;;;;;;2274857;61;20355;-63
2023/04/11 09:57:44;0.00;0.00;0.62;0.00;0.00;0.62;7.83;6.90;;;24.80;22.10;;;;;;2274156;61;20385;-63
2023/04/11 10:00:31;0.00;0.00;0.62;0.00;0.00;0.62;8.43;7.53;;;24.80;22.10;;;;;;2274177;61;20359;-65
2023/04/11 10:03:18;0.00;0.00;0.62;0.00;0.00;0.62;8.60;7.67;;;24.80;22.10;;;;;;2274479;61;20578;-63
2023/04/11 10:06:08;0.00;0.00;0.62;0.00;0.00;0.62;9.17;7.87;;;24.80;22.10;;;;;;2274387;61;20370;-64
2023/04/11 10:09:05;0.00;0.00;0.62;0.00;0.00;0.62;9.63;8.63;;;24.80;22.10;;;;;;2445209;39;20857;-66
2023/04/11 10:11:50;0.00;0.00;0.62;0.00;0.00;0.62;9.00;8.10;;;24.80;22.10;;;;;;2280273;60;20412;-63
2023/04/11 10:14:43;0.00;0.00;0.62;0.00;0.00;0.62;10.00;8.90;;;24.80;22.10;;;;;;2278479;60;20365;-69
2023/04/11 10:20:43;0.00;0.00;0.62;0.00;0.00;0.62;9.47;8.13;;;24.80;22.20;;;;;;2276695;61;20370;-63
2023/04/11 10:24:08;0.00;0.00;0.62;0.00;0.00;0.62;10.50;9.00;;;24.80;22.10;;;;;;2271839;61;20438;-64
2023/04/11 10:26:54;0.00;0.00;0.62;0.00;0.00;0.62;10.43;9.33;;;24.90;22.20;;;;;;2275511;60;20694;-63
2023/04/11 10:29:51;0.00;0.00;0.62;0.00;0.00;0.62;11.10;9.77;;;24.90;22.30;;;;;;2278695;60;20380;-63
2023/04/11 10:32:36;0.00;0.00;0.62;0.00;0.00;0.62;11.27;10.07;;;24.80;22.20;;;;;;2275538;60;20362;-63
2023/04/11 10:35:22;0.00;0.00;0.62;0.00;0.00;0.62;12.17;10.87;;;24.90;22.30;;;;;;2279716;60;20836;-63
2023/04/11 10:38:46;0.00;0.00;0.62;0.00;0.00;0.62;12.23;10.90;;;24.90;22.30;;;;;;2278862;60;20393;-63
2023/04/11 10:41:31;0.00;0.00;0.62;0.00;0.00;0.62;11.60;9.83;;;24.90;22.40;;;;;;2276069;60;20361;-63
2023/04/11 10:44:19;0.00;0.00;0.62;0.00;0.00;0.62;12.93;11.60;;;24.90;22.40;;;;;;2279237;60;20837;-63
2023/04/11 10:47:16;0.00;0.00;0.62;0.00;0.00;0.62;10.47;9.00;;;24.90;22.40;;;;;;2276137;60;20393;-63
2023/04/11 10:50:01;0.00;0.00;0.62;0.00;0.00;0.62;12.23;10.90;;;24.90;22.40;;;;;;2279367;60;20375;-63
2023/04/11 10:52:46;0.00;0.00;0.62;0.00;0.00;0.62;10.40;9.30;;;24.90;22.40;;;;;;2273290;60;20402;-62
2023/04/11 10:55:47;0.00;0.00;0.62;0.00;0.00;0.62;11.73;10.53;;;25.00;22.50;;;;;;2279397;60;20357;-62
2023/04/11 10:58:38;0.00;0.00;0.62;0.00;0.00;0.62;11.47;10.27;;;25.00;22.50;;;;;;2279222;60;20373;-63
2023/04/11 11:01:25;0.00;0.00;0.62;0.00;0.00;0.62;11.17;9.67;;;25.00;22.50;;;;;;2279387;60;20838;-63
2023/04/11 11:04:10;0.00;0.00;0.62;0.00;0.00;0.62;11.73;9.60;;;25.00;22.50;;;;;;2279469;60;20443;-62
2023/04/11 11:06:56;0.00;0.00;0.62;0.00;0.00;0.62;9.63;8.70;;;25.00;22.50;;;;;;2279223;60;20361;-63
2023/04/11 11:09:47;0.00;0.00;0.62;0.00;0.00;0.62;10.50;8.90;;;25.00;22.50;;;;;;2278559;60;20357;-63